createdAt,value
2022-10-28T00:00:30.930Z,100484.06
2022-10-28T00:03:08.293Z,100485.81
2022-10-28T00:08:12.035Z,100490.75
2022-10-28T00:10:44.327Z,100463.13
2022-10-28T00:13:13.560Z,100483.00
2022-10-28T00:15:42.743Z,100482.13
2022-10-28T00:18:18.825Z,100480.38
2022-10-28T00:20:48.370Z,100488.81
2022-10-28T00:23:22.462Z,100483.56
2022-10-28T00:25:51.638Z,100482.63
2022-10-28T00:28:20.677Z,100473.88
2022-10-28T00:30:54.898Z,100483.41
2022-10-28T00:33:26.160Z,100481.81
2022-10-28T00:35:55.317Z,100459.47
2022-10-28T00:38:24.427Z,100485.44
2022-10-28T00:40:54.232Z,100476.06
2022-10-28T00:43:36.736Z,100483.84
2022-10-28T00:46:14.303Z,100473.50
2022-10-28T00:48:49.203Z,100486.56
2022-10-28T00:51:21.430Z,100470.25
2022-10-28T00:53:52.437Z,100440.03
2022-10-28T00:56:22.573Z,100483.25
2022-10-28T00:58:53.613Z,100481.53
2022-10-28T01:01:22.945Z,100473.13
2022-10-28T01:03:55.711Z,100476.59
2022-10-28T01:06:33.199Z,100470.66
2022-10-28T01:09:02.526Z,100467.28
2022-10-28T01:11:56.556Z,100459.78
2022-10-28T01:14:48.896Z,100463.03
2022-10-28T01:17:36.550Z,100464.66
2022-10-28T01:20:40.989Z,100466.56
2022-10-28T01:23:21.328Z,100463.03
2022-10-28T01:26:09.968Z,100468.97
2022-10-28T01:29:00.757Z,100461.47
2022-10-28T01:34:31.317Z,100466.28
2022-10-28T01:37:05.749Z,100471.41
2022-10-28T01:39:41.516Z,100481.56
2022-10-28T01:42:19.110Z,100476.38
2022-10-28T01:45:04.376Z,100477.94
2022-10-28T01:47:42.589Z,100479.66
2022-10-28T01:50:23.471Z,100481.34
2022-10-28T01:52:56.285Z,100462.50
2022-10-28T01:55:30.286Z,100477.78
2022-10-28T01:58:02.498Z,100459.88
2022-10-28T02:00:33.501Z,100464.22
2022-10-28T02:03:05.233Z,100469.44
2022-10-28T02:05:46.996Z,100467.88
2022-10-28T02:08:37.226Z,100450.63
2022-10-28T02:11:47.672Z,100460.22
2022-10-28T02:14:33.439Z,100464.53
2022-10-28T02:17:12.249Z,100468.88
2022-10-28T02:19:52.682Z,100458.63
2022-10-28T02:22:28.912Z,100461.03
2022-10-28T02:25:11.531Z,100471.44
2022-10-28T02:27:49.629Z,100478.22
2022-10-28T02:30:22.330Z,100468.59
2022-10-28T02:33:01.213Z,100479.91
2022-10-28T02:35:35.140Z,100485.88
2022-10-28T02:38:18.440Z,100484.25
2022-10-28T02:40:54.777Z,100480.03
2022-10-28T02:43:38.214Z,100477.78
2022-10-28T02:46:10.039Z,100465.88
2022-10-28T02:48:43.622Z,100474.47
2022-10-28T02:51:19.993Z,100468.38
2022-10-28T02:53:57.903Z,100475.28
2022-10-28T02:56:29.056Z,100480.34
2022-10-28T02:58:58.231Z,100464.09
2022-10-28T03:01:27.292Z,100467.53
2022-10-28T03:04:06.719Z,100453.75
2022-10-28T03:06:37.822Z,100458.91
2022-10-28T03:09:06.968Z,100450.28
2022-10-28T03:11:36.488Z,100453.91
2022-10-28T03:14:05.603Z,100464.06
2022-10-28T03:16:39.813Z,100469.28
2022-10-28T03:22:00.065Z,100475.22
2022-10-28T03:24:29.390Z,100469.19
2022-10-28T03:26:58.512Z,100482.72
2022-10-28T03:29:27.673Z,100469.91
2022-10-28T03:31:56.815Z,100463.84
2022-10-28T03:34:25.965Z,100464.78
2022-10-28T03:36:55.148Z,100466.41
2022-10-28T03:39:26.357Z,100469.81
2022-10-28T03:41:55.484Z,100452.66
2022-10-28T03:44:29.530Z,100456.03
2022-10-28T03:46:58.768Z,100463.72
2022-10-28T03:49:27.875Z,100456.03
2022-10-28T03:51:56.874Z,100456.84
2022-10-28T03:54:27.902Z,100449.25
2022-10-28T03:56:57.537Z,100445.00
2022-10-28T03:59:26.621Z,100457.78
2022-10-28T04:01:55.752Z,100420.69
2022-10-28T04:04:28.404Z,100442.25
2022-10-28T04:09:42.806Z,100436.28
2022-10-28T04:12:12.751Z,100450.06
2022-10-28T04:14:42.570Z,100447.53
2022-10-28T04:17:11.701Z,100446.78
2022-10-28T04:19:40.770Z,100450.22
2022-10-28T04:22:15.699Z,100448.47
2022-10-28T04:24:46.777Z,100453.59
2022-10-28T04:27:21.126Z,100450.19
2022-10-28T04:29:50.361Z,100458.03
2022-10-28T04:32:19.444Z,100444.56
2022-10-28T04:34:48.751Z,100427.41
2022-10-28T04:37:22.741Z,100447.41
2022-10-28T04:39:54.094Z,100439.78
2022-10-28T04:42:24.505Z,100450.09
2022-10-28T04:44:53.551Z,100457.03
2022-10-28T04:47:22.678Z,100437.38
2022-10-28T04:49:51.789Z,100436.53
2022-10-28T04:52:20.789Z,100440.81
2022-10-28T04:57:32.675Z,100436.47
2022-10-28T05:00:01.810Z,100433.81
2022-10-28T05:02:33.667Z,100429.53
2022-10-28T05:05:04.089Z,100433.06
2022-10-28T05:07:34.866Z,100434.84
2022-10-28T05:10:03.913Z,100432.31
2022-10-28T05:12:34.958Z,100441.03
2022-10-28T05:15:04.133Z,100435.19
2022-10-28T05:17:33.238Z,100439.56
2022-10-28T05:20:02.245Z,100439.69
2022-10-28T05:22:32.485Z,100436.28
2022-10-28T05:25:01.650Z,100423.25
2022-10-28T05:27:32.357Z,100437.28
2022-10-28T05:30:03.668Z,100439.03
2022-10-28T05:32:32.991Z,100439.22
2022-10-28T05:35:55.036Z,100436.88
2022-10-28T05:38:29.798Z,100440.69
2022-10-28T05:40:58.980Z,100431.50
2022-10-28T05:43:28.068Z,100439.53
2022-10-28T05:46:02.287Z,100431.06
2022-10-28T05:48:31.568Z,100412.78
2022-10-28T05:51:04.775Z,100433.63
2022-10-28T05:53:41.197Z,100438.00
2022-10-28T05:56:11.834Z,100441.47
2022-10-28T05:58:41.042Z,100437.97
2022-10-28T06:01:12.365Z,100436.25
2022-10-28T06:03:41.991Z,100438.84
2022-10-28T06:06:11.121Z,100443.13
2022-10-28T06:08:40.254Z,100439.53
2022-10-28T06:11:07.804Z,100438.53
2022-10-28T06:13:36.974Z,100445.25
2022-10-28T06:16:07.018Z,100440.06
2022-10-28T06:18:38.085Z,100440.94
2022-10-28T06:21:12.678Z,100438.41
2022-10-28T06:23:41.698Z,100434.16
2022-10-28T06:26:15.824Z,100432.44
2022-10-28T06:28:47.831Z,100429.84
2022-10-28T06:31:17.285Z,100420.38
2022-10-28T06:33:48.394Z,100417.78
2022-10-28T06:36:22.560Z,100419.69
2022-10-28T06:38:53.924Z,100425.75
2022-10-28T06:41:23.126Z,100413.91
2022-10-28T06:46:43.164Z,100414.00
2022-10-28T06:49:14.198Z,100419.16
2022-10-28T06:51:48.461Z,100426.03
2022-10-28T06:54:17.667Z,100420.88
2022-10-28T06:56:49.104Z,100421.78
2022-10-28T06:59:24.151Z,100421.88
2022-10-28T07:01:53.593Z,100406.38
2022-10-28T07:04:25.327Z,100409.22
2022-10-28T07:06:57.274Z,100420.19
2022-10-28T07:09:26.031Z,100417.00
2022-10-28T07:11:55.451Z,100412.63
2022-10-28T07:14:25.267Z,100410.94
2022-10-28T07:16:54.391Z,100413.69
2022-10-28T07:19:28.112Z,100416.47
2022-10-28T07:21:57.329Z,100402.88
2022-10-28T07:27:26.755Z,100403.13
2022-10-28T07:30:00.746Z,100407.59
2022-10-28T07:35:28.743Z,100391.63
2022-10-28T07:37:59.696Z,100389.19
2022-10-28T07:40:29.396Z,100394.56
2022-10-28T07:45:36.372Z,100397.41
2022-10-28T07:48:05.564Z,100405.13
2022-10-28T07:50:41.710Z,100398.22
2022-10-28T07:53:11.182Z,100404.22
2022-10-28T07:55:41.318Z,100405.16
2022-10-28T07:58:10.431Z,100403.53
2022-10-28T08:00:40.011Z,100403.53
2022-10-28T08:03:09.231Z,100394.84
2022-10-28T08:05:40.669Z,100409.50
2022-10-28T08:08:09.763Z,100409.47
2022-10-28T08:10:39.015Z,100404.25
2022-10-28T08:13:13.348Z,100406.91
2022-10-28T08:15:42.514Z,100400.94
2022-10-28T08:18:21.871Z,100391.63
2022-10-28T08:20:52.942Z,100396.09
2022-10-28T08:23:22.175Z,100394.53
2022-10-28T08:25:52.378Z,100388.59
2022-10-28T08:28:21.640Z,100388.72
2022-10-28T08:31:04.036Z,100381.88
2022-10-28T08:33:34.146Z,100386.28
2022-10-28T08:36:05.467Z,100388.91
2022-10-28T08:38:34.792Z,100388.94
2022-10-28T08:41:14.770Z,100384.66
2022-10-28T08:43:58.685Z,100388.13
2022-10-28T08:46:41.827Z,100388.97
2022-10-28T08:49:15.502Z,100387.28
2022-10-28T08:51:59.317Z,100387.28
2022-10-28T08:54:33.339Z,100382.13
2022-10-28T08:57:04.883Z,100376.97
2022-10-28T08:59:37.640Z,100364.94
2022-10-28T09:02:21.634Z,100378.72
2022-10-28T09:04:58.349Z,100377.03
2022-10-28T09:07:34.705Z,100374.44
2022-10-28T09:10:06.475Z,100366.69
2022-10-28T09:12:46.636Z,100352.00
2022-10-28T09:15:27.565Z,100356.31
2022-10-28T09:17:59.497Z,100358.03
2022-10-28T09:20:38.902Z,100347.72
2022-10-28T09:23:20.786Z,100345.09
2022-10-28T09:25:55.679Z,100345.91
2022-10-28T09:28:43.432Z,100339.03
2022-10-28T09:31:22.077Z,100330.34
2022-10-28T09:34:08.592Z,100331.19
2022-10-28T09:36:41.744Z,100325.09
2022-10-28T09:39:23.970Z,100319.94
2022-10-28T09:41:59.141Z,100330.34
2022-10-28T09:44:35.066Z,100317.44
2022-10-28T09:47:06.628Z,100322.63
2022-10-28T09:49:39.585Z,100320.03
2022-10-28T09:52:18.931Z,100321.78
2022-10-28T09:54:53.100Z,100314.03
2022-10-28T09:57:24.225Z,100310.59
2022-10-28T09:59:53.989Z,100303.72
2022-10-28T10:02:30.492Z,100306.34
2022-10-28T10:05:06.538Z,100310.66
2022-10-28T10:07:45.368Z,100288.28
2022-10-28T10:10:21.263Z,100295.19
2022-10-28T10:12:54.150Z,100308.97
2022-10-28T10:15:36.557Z,100300.34
2022-10-28T10:18:08.455Z,100292.59
2022-10-28T10:20:50.352Z,100300.31
2022-10-28T10:23:30.092Z,100287.38
2022-10-28T10:26:08.051Z,100288.25
2022-10-28T10:28:45.513Z,100290.84
2022-10-28T10:31:21.635Z,100281.31
2022-10-28T10:33:52.779Z,100279.63
2022-10-28T10:36:27.945Z,100285.63
2022-10-28T10:38:58.745Z,100289.97
2022-10-28T10:41:41.516Z,100289.09
2022-10-28T10:44:34.184Z,100283.91
2022-10-28T10:47:24.573Z,100282.19
2022-10-28T10:49:55.093Z,100277.00
2022-10-28T10:52:26.221Z,100278.75
2022-10-28T10:55:07.282Z,100272.69
2022-10-28T10:57:40.888Z,100269.28
2022-10-28T11:00:19.087Z,100258.91
2022-10-28T11:02:55.931Z,100268.44
2022-10-28T11:05:29.280Z,100271.91
2022-10-28T11:08:21.213Z,100278.78
2022-10-28T11:11:05.749Z,100271.91
2022-10-28T11:16:22.994Z,100262.44
2022-10-28T11:18:53.884Z,100260.72
2022-10-28T11:21:43.203Z,100266.78
2022-10-28T11:24:47.092Z,100260.72
2022-10-28T11:27:26.105Z,100266.75
2022-10-28T11:30:00.349Z,100265.88
2022-10-28T11:32:54.760Z,100259.00
2022-10-28T11:35:44.725Z,100265.03
2022-10-28T11:38:29.015Z,100260.72
2022-10-28T11:41:18.315Z,100255.56
2022-10-28T11:43:55.336Z,100257.31
2022-10-28T11:46:41.101Z,100242.66
2022-10-28T11:49:37.002Z,100242.63
2022-10-28T11:52:24.433Z,100239.19
2022-10-28T11:55:05.183Z,100232.31
2022-10-28T11:57:45.980Z,100238.31
2022-10-28T12:00:33.971Z,100240.91
2022-10-28T12:03:35.867Z,100222.84
2022-10-28T12:06:14.064Z,100232.31
2022-10-28T12:12:11.915Z,100231.44
2022-10-28T12:14:54.665Z,100221.09
2022-10-28T12:17:35.216Z,100218.53
2022-10-28T12:20:13.340Z,100203.91
2022-10-28T12:22:49.898Z,100222.78
2022-10-28T12:25:23.610Z,100228.00
2022-10-28T12:27:57.732Z,100226.25
2022-10-28T12:30:29.445Z,100222.81
2022-10-28T12:33:03.085Z,100213.34
2022-10-28T12:35:38.594Z,100216.81
2022-10-28T12:38:14.616Z,100219.41
2022-10-28T12:40:51.071Z,100222.00
2022-10-28T12:43:25.835Z,100208.19
2022-10-28T12:46:02.793Z,100215.09
2022-10-28T12:56:00.312Z,100209.09
2022-10-28T12:58:33.999Z,100217.69
2022-10-28T13:01:06.211Z,100209.94
2022-10-28T13:03:35.709Z,100213.38
2022-10-28T13:06:25.389Z,100215.09
2022-10-28T13:09:18.120Z,100217.69
2022-10-28T13:12:19.466Z,100217.69
2022-10-28T13:15:20.211Z,100211.66
2022-10-28T13:18:04.686Z,100209.09
2022-10-28T13:20:47.031Z,100205.66
2022-10-28T13:23:26.336Z,100186.69
2022-10-28T13:26:05.725Z,100197.88
2022-10-28T13:28:43.278Z,100201.34
2022-10-28T13:31:15.004Z,100199.63
2022-10-28T13:33:53.451Z,100200.47
2022-10-28T13:39:23.231Z,100188.41
2022-10-28T13:42:27.056Z,100191.00
2022-10-28T13:45:43.808Z,100196.19
2022-10-28T13:48:45.735Z,100192.72
2022-10-28T13:51:34.018Z,100195.31
2022-10-28T13:54:03.323Z,100185.81
2022-10-28T13:56:48.120Z,100197.03
2022-10-28T13:59:31.341Z,100199.63
2022-10-28T14:05:09.327Z,100198.72
2022-10-28T14:07:43.004Z,100194.47
2022-10-28T14:10:22.752Z,100172.00
2022-10-28T14:12:57.195Z,100184.06
2022-10-28T14:15:30.612Z,100186.66
2022-10-28T14:18:42.504Z,100183.22
2022-10-28T14:21:08.766Z,100184.06
2022-10-28T14:24:07.486Z,100178.91
2022-10-28T14:27:06.279Z,100176.31
2022-10-28T14:29:45.021Z,100178.91
2022-10-28T14:32:44.959Z,100172.00
2022-10-28T14:35:30.519Z,100172.00
2022-10-28T14:38:28.125Z,100177.19
2022-10-28T14:41:27.292Z,100179.75
2022-10-28T14:44:05.536Z,100172.91
2022-10-28T14:46:52.985Z,100166.84
2022-10-28T14:49:25.759Z,100149.66
2022-10-28T14:51:57.405Z,100160.84
2022-10-28T14:54:40.941Z,100160.00
2022-10-28T14:57:11.058Z,100168.59
2022-10-28T14:59:44.468Z,100155.69
2022-10-28T15:02:17.678Z,100155.69
2022-10-28T15:04:50.823Z,100166.00
2022-10-28T15:07:23.380Z,100165.16
2022-10-28T15:09:54.010Z,100166.00
2022-10-28T15:12:29.428Z,100166.00
2022-10-28T15:14:59.352Z,100146.22
2022-10-28T15:17:31.051Z,100149.66
2022-10-28T15:20:03.062Z,100153.97
2022-10-28T15:22:34.436Z,100154.81
2022-10-28T15:25:06.240Z,100159.97
2022-10-28T15:27:44.084Z,100123.84
2022-10-28T15:30:16.518Z,100153.09
2022-10-28T15:32:45.583Z,100145.38
2022-10-28T15:35:42.018Z,100147.09
2022-10-28T15:38:39.447Z,100142.78
2022-10-28T15:41:44.344Z,100152.22
2022-10-28T15:44:35.289Z,100144.47
2022-10-28T15:47:19.222Z,100142.75
2022-10-28T15:50:02.049Z,100149.66
2022-10-28T15:52:38.209Z,100135.91
2022-10-28T15:58:37.342Z,100137.63
2022-10-28T16:01:11.888Z,100132.47
2022-10-28T16:03:46.211Z,100133.31
2022-10-28T16:06:31.572Z,100125.56
2022-10-28T16:09:16.910Z,100131.59
2022-10-28T16:11:52.146Z,100109.22
2022-10-28T16:14:35.474Z,100124.69
2022-10-28T16:17:24.393Z,100115.25
2022-10-28T16:19:56.202Z,100106.63
2022-10-28T16:22:26.393Z,100122.13
2022-10-28T16:24:56.973Z,100126.44
2022-10-28T16:27:30.000Z,100128.13
2022-10-28T16:29:59.237Z,100119.53
2022-10-28T16:32:31.808Z,100134.16
2022-10-28T16:35:03.593Z,100116.09
2022-10-28T16:37:34.410Z,100118.69
2022-10-28T16:40:03.820Z,100126.44
2022-10-28T16:42:35.588Z,100121.28
2022-10-28T16:45:04.808Z,100123.00
2022-10-28T16:47:34.055Z,100124.69
2022-10-28T16:50:03.198Z,100117.84
2022-10-28T16:52:33.226Z,100111.78
2022-10-28T16:55:02.617Z,100117.84
2022-10-28T16:57:34.329Z,100110.94
2022-10-28T17:00:03.554Z,100075.69
2022-10-28T17:02:35.114Z,100107.53
2022-10-28T17:05:06.926Z,100102.34
2022-10-28T17:07:46.054Z,100106.66
2022-10-28T17:10:15.889Z,100101.50
2022-10-28T17:12:47.325Z,100107.50
2022-10-28T17:15:16.778Z,100103.22
2022-10-28T17:17:45.959Z,100098.94
2022-10-28T17:20:15.976Z,100092.03
2022-10-28T17:22:44.967Z,100095.50
2022-10-28T17:25:19.287Z,100094.59
2022-10-28T17:27:50.196Z,100075.72
2022-10-28T17:30:19.820Z,100091.16
2022-10-28T17:32:52.406Z,100092.06
2022-10-28T17:35:27.202Z,100090.31
2022-10-28T17:38:07.688Z,100084.31
2022-10-28T17:40:56.677Z,100086.03
2022-10-28T17:43:27.955Z,100065.38
2022-10-28T17:46:05.201Z,100077.44
2022-10-28T17:48:35.464Z,100068.84
2022-10-28T17:51:04.571Z,100065.38
2022-10-28T17:53:33.749Z,100077.44
2022-10-28T17:56:04.690Z,100076.59
2022-10-28T17:58:37.848Z,100072.28
2022-10-28T18:01:09.583Z,100073.16
2022-10-28T18:03:39.310Z,100073.13
2022-10-28T18:06:12.059Z,100071.44
2022-10-28T18:08:43.003Z,100063.69
2022-10-28T18:11:19.421Z,100067.13
2022-10-28T18:13:53.381Z,100068.84
2022-10-28T18:16:25.042Z,100067.13
2022-10-28T18:19:08.048Z,100066.25
2022-10-28T18:21:37.375Z,100058.53
2022-10-28T18:24:06.937Z,100068.84
2022-10-28T18:26:37.760Z,100070.56
2022-10-28T18:29:12.716Z,100077.44
2022-10-28T18:34:44.583Z,100067.09
2022-10-28T18:37:13.757Z,100059.38
2022-10-28T18:39:44.734Z,100061.94
2022-10-28T18:42:21.647Z,100065.41
2022-10-28T18:44:57.970Z,100047.31
2022-10-28T18:47:27.356Z,100054.22
2022-10-28T18:49:56.580Z,100055.09
2022-10-28T18:52:33.544Z,100051.63
2022-10-28T18:55:02.860Z,100051.63
2022-10-28T18:57:32.319Z,100056.81
2022-10-28T19:00:19.914Z,100055.06
2022-10-28T19:02:50.623Z,100047.31
2022-10-28T19:05:20.260Z,100050.78
2022-10-28T19:07:49.319Z,100043.03
2022-10-28T19:10:18.670Z,100038.72
2022-10-28T19:12:52.061Z,100053.38
2022-10-28T19:15:30.259Z,100049.94
2022-10-28T19:18:04.520Z,100044.78
2022-10-28T19:20:33.785Z,100046.47
2022-10-28T19:23:03.015Z,100048.19
2022-10-28T19:25:32.373Z,100048.19
2022-10-28T19:28:01.649Z,100044.75
2022-10-28T19:30:36.802Z,100050.75
2022-10-28T19:33:06.374Z,100048.19
2022-10-28T19:38:15.803Z,100049.06
2022-10-28T19:40:44.862Z,100029.25
2022-10-28T19:43:14.018Z,100042.19
2022-10-28T19:45:46.237Z,100037.00
2022-10-28T19:50:55.771Z,100030.13
2022-10-28T19:53:25.070Z,100034.44
2022-10-28T19:58:46.650Z,100029.25
2022-10-28T20:01:17.854Z,100004.31
2022-10-28T20:03:49.365Z,100018.06
2022-10-28T20:06:27.221Z,100030.13
2022-10-28T20:08:56.578Z,100026.66
2022-10-28T20:11:45.640Z,100028.41
2022-10-28T20:14:15.754Z,100020.66
2022-10-28T20:16:48.446Z,100019.78
2022-10-28T20:19:17.637Z,100008.59
2022-10-28T20:21:52.975Z,100008.59
2022-10-28T20:24:22.270Z,99996.56
2022-10-28T20:26:51.360Z,100003.44
2022-10-28T20:29:20.793Z,100003.44
2022-10-28T20:31:51.873Z,100003.44
2022-10-28T20:34:21.162Z,99996.56
2022-10-28T20:36:50.796Z,99989.69
2022-10-28T20:39:20.947Z,99990.53
2022-10-28T20:42:12.606Z,99981.09
2022-10-28T20:44:41.719Z,99981.94
2022-10-28T20:47:12.880Z,99974.19
2022-10-28T20:49:47.270Z,99981.94
2022-10-28T20:52:16.688Z,99983.66
2022-10-28T20:54:45.836Z,99977.63
2022-10-28T20:57:15.049Z,99974.19
2022-10-28T20:59:44.146Z,99964.75
2022-10-28T21:02:23.484Z,99926.06
2022-10-28T21:04:52.914Z,99953.53
2022-10-28T21:07:21.984Z,99950.97
2022-10-28T21:09:57.296Z,99940.66
2022-10-28T21:12:32.425Z,99948.41
2022-10-28T21:15:09.817Z,99941.50
2022-10-28T21:17:40.927Z,99956.13
2022-10-28T21:20:15.154Z,99956.97
2022-10-28T21:22:44.589Z,99955.25
2022-10-28T21:25:13.997Z,99953.53
2022-10-28T21:27:43.241Z,99951.81
2022-10-28T21:30:14.114Z,99950.97
2022-10-28T21:35:21.272Z,99952.66
2022-10-28T21:37:50.382Z,99938.06
2022-10-28T21:40:19.712Z,99944.91
2022-10-28T21:42:51.197Z,99943.22
2022-10-28T21:45:26.081Z,99932.88
2022-10-28T21:47:58.423Z,99939.75
2022-10-28T21:50:27.949Z,99927.72
2022-10-28T21:52:57.135Z,99931.16
2022-10-28T21:55:41.436Z,99939.75
2022-10-28T21:58:15.480Z,99930.28
2022-10-28T22:00:45.020Z,99923.44
2022-10-28T22:03:18.951Z,99925.16
2022-10-28T22:05:52.310Z,99908.81
2022-10-28T22:08:26.618Z,99915.72
2022-10-28T22:11:08.164Z,99922.56
2022-10-28T22:13:45.621Z,99912.25
2022-10-28T22:16:16.488Z,99913.13
2022-10-28T22:18:53.515Z,99901.13
2022-10-28T22:21:24.629Z,99908.81
2022-10-28T22:23:55.108Z,99903.66
2022-10-28T22:26:26.742Z,99907.09
2022-10-28T22:29:01.806Z,99907.09
2022-10-28T22:31:32.903Z,99900.25
2022-10-28T22:34:04.942Z,99907.94
2022-10-28T22:36:33.865Z,99905.34
2022-10-28T22:39:08.976Z,99899.38
2022-10-28T22:41:38.198Z,99895.06
2022-10-28T22:44:07.619Z,99895.91
2022-10-28T22:46:39.483Z,99883.03
2022-10-28T22:49:10.647Z,99901.06
2022-10-28T22:51:39.820Z,99885.56
2022-10-28T22:54:08.914Z,99889.88
2022-10-28T22:56:38.088Z,99880.38
2022-10-28T22:59:07.402Z,99884.69
2022-10-28T23:01:41.754Z,99876.06
2022-10-28T23:04:13.880Z,99876.94
2022-10-28T23:06:43.059Z,99875.22
2022-10-28T23:09:13.171Z,99874.34
2022-10-28T23:11:47.374Z,99877.81
2022-10-28T23:14:16.382Z,99873.50
2022-10-28T23:16:45.625Z,99866.59
2022-10-28T23:19:16.851Z,99862.31
2022-10-28T23:21:45.972Z,99855.44
2022-10-28T23:24:15.006Z,99863.13
2022-10-28T23:26:48.318Z,99855.34
2022-10-28T23:29:17.517Z,99855.34
2022-10-28T23:31:46.502Z,99856.22
2022-10-28T23:34:17.621Z,99857.91
2022-10-28T23:36:46.831Z,99848.47
2022-10-28T23:39:16.169Z,99848.47
2022-10-28T23:41:45.252Z,99850.19
2022-10-28T23:44:14.389Z,99850.19
2022-10-28T23:46:43.544Z,99851.94
2022-10-28T23:49:12.682Z,99859.69
2022-10-28T23:54:27.466Z,99851.06
2022-10-28T23:56:56.541Z,99851.91
2022-10-28T23:59:33.175Z,99854.50
